Aeroporto :
LOGIN :

Iscrizione | Disclaimer

   EN    FR    IT 

 










Sommario :    VFR   VFR Marginale   IFR   IFR Intensivo   IFR Molto Intensivo
Visibilità : 
Base nubi : 
>= 8 km
>= 3000ft
5 / 8 km
1000 / 3000 ft
1500m / 5 km
500 / 1000 ft
800 / 1500m
200 / 500 ft
< 800m
< 200 ft
Simboli :   Temporali  Nebbia  Neve Forte  Precipitazioni Forti  Vento > 20 kt
SIGMETs :   Varie  Temporali  Ghiacco  Turbolenza  Onda orograficha  Ceneri Vulcaniche






- Altitudine del aeroporto : 433 ft
- Codice IATA : CCF


LFMK - Carcassonne

ULTIMO METAR :
  • 250400Z AUTO 09006KT 060V130 9999 BKN007 OVC012 09/08 Q1020 NOSIG

METARs OBSOLETI :
  • 250330Z AUTO 08010KT 9999 FEW007 OVC013 09/08 Q1020 NOSIG
  • 250300Z AUTO 08010KT 9999 BKN007 OVC013 09/08 Q1020 TEMPO OVC010
  • 250230Z AUTO 08010KT 9999 BKN007 BKN012 OVC026 09/08 Q1020
  • 250200Z AUTO 09008KT 9999 BKN014 OVC024 09/08 Q1021
  • 250130Z AUTO 09008KT 9999 BKN013 OVC021 09/08 Q1020

TAF AMD TAF LFMK
Valido dal 25 a 03 ore il 26 a 03 ore UTC


250328Z 2503/2603 09010KT 9999 BKN020
TEMPO 2503/2603 BKN007 OVC012



MetMap, La meteo Aeronautica in un colpo d'occhio ! - Copyright ORBIFLY Dicembre 2007 - Disclaimer

ORBIFLY MET'MAP TEAM :

Programmazione e sviluppo : Alexandra Zaïnal
Concezione : Baudouin d'Aumeries
Aiuto per la programmazione : Marc-Olivier Méhu
Supporto tecnico e logistico : Manuel Goepfert
Aiuto per la traduzione : Arnaldo La Scala

Contatto : metmap@orbifly.com




FONTI E CREDITI :

   NOAA